createdAt,value
2018-11-25T00:00:04.266Z,1005.12
2018-11-25T00:01:04.233Z,1005.13
2018-11-25T00:02:04.220Z,1005.13
2018-11-25T00:03:04.187Z,1005.13
2018-11-25T00:04:04.165Z,1005.14
2018-11-25T00:05:04.140Z,1005.16
2018-11-25T00:06:04.107Z,1005.16
2018-11-25T00:07:04.087Z,1005.15
2018-11-25T00:08:04.058Z,1005.20
2018-11-25T00:09:04.035Z,1005.17
2018-11-25T00:10:04.006Z,1005.15
2018-11-25T00:11:03.982Z,1005.16
2018-11-25T00:12:03.971Z,1005.17
2018-11-25T00:13:03.930Z,1005.13
2018-11-25T00:14:03.905Z,1005.16
2018-11-25T00:15:03.884Z,1005.17
2018-11-25T00:16:03.856Z,1005.16
2018-11-25T00:17:03.829Z,1005.15
2018-11-25T00:18:03.803Z,1005.18
2018-11-25T00:19:03.777Z,1005.17
2018-11-25T00:20:03.758Z,1005.23
2018-11-25T00:21:03.728Z,1005.20
2018-11-25T00:22:03.712Z,1005.17
2018-11-25T00:23:03.685Z,1005.16
2018-11-25T00:24:03.651Z,1005.14
2018-11-25T00:25:03.628Z,1005.16
2018-11-25T00:26:03.613Z,1005.10
2018-11-25T00:27:03.580Z,1005.13
2018-11-25T00:28:03.555Z,1005.17
2018-11-25T00:29:03.534Z,1005.17
2018-11-25T00:30:03.504Z,1005.13
2018-11-25T00:31:09.453Z,1005.13
2018-11-25T00:32:03.463Z,1005.11
2018-11-25T00:33:03.425Z,1005.09
2018-11-25T00:34:03.401Z,1005.13
2018-11-25T00:35:03.380Z,1005.11
2018-11-25T00:36:03.350Z,1005.10
2018-11-25T00:37:03.329Z,1005.10
2018-11-25T00:38:03.299Z,1005.13
2018-11-25T00:39:03.279Z,1005.10
2018-11-25T00:40:03.255Z,1005.09
2018-11-25T00:41:03.224Z,1005.10
2018-11-25T00:42:03.216Z,1005.07
2018-11-25T00:43:03.176Z,1005.08
2018-11-25T00:44:03.146Z,1005.09
2018-11-25T00:45:03.132Z,1005.08
2018-11-25T00:46:03.097Z,1005.01
2018-11-25T00:47:03.071Z,1005.07
2018-11-25T00:48:03.048Z,1005.03
2018-11-25T00:49:03.021Z,1005.04
2018-11-25T00:50:02.995Z,1005.05
2018-11-25T00:51:02.974Z,1005.05
2018-11-25T00:52:02.943Z,1005.06
2018-11-25T00:53:02.920Z,1005.03
2018-11-25T00:54:02.894Z,1005.05
2018-11-25T00:55:02.867Z,1005.04
2018-11-25T00:56:02.846Z,1005.10
2018-11-25T00:57:02.817Z,1005.07
2018-11-25T00:58:02.799Z,1005.09
2018-11-25T00:59:02.768Z,1005.08
2018-11-25T01:00:02.739Z,1005.10
2018-11-25T01:01:02.719Z,1005.11
2018-11-25T01:02:02.694Z,1005.10
2018-11-25T01:03:02.665Z,1005.06
2018-11-25T01:04:02.643Z,1005.08
2018-11-25T01:05:02.612Z,1005.07
2018-11-25T01:06:02.590Z,1005.08
2018-11-25T01:07:02.567Z,1005.10
2018-11-25T01:08:02.539Z,1005.12
2018-11-25T01:09:02.510Z,1005.10
2018-11-25T01:10:02.485Z,1005.13
2018-11-25T01:11:02.459Z,1005.12
2018-11-25T01:12:02.442Z,1005.12
2018-11-25T01:13:02.406Z,1005.12
2018-11-25T01:14:02.381Z,1005.14
2018-11-25T01:15:02.365Z,1005.14
2018-11-25T01:16:02.333Z,1005.17
2018-11-25T01:17:02.305Z,1005.13
2018-11-25T01:18:02.280Z,1005.13
2018-11-25T01:19:02.252Z,1005.16
2018-11-25T01:20:02.230Z,1005.15
2018-11-25T01:21:02.204Z,1005.18
2018-11-25T01:22:02.178Z,1005.17
2018-11-25T01:23:02.153Z,1005.17
2018-11-25T01:24:02.126Z,1005.16
2018-11-25T01:25:02.106Z,1005.18
2018-11-25T01:26:02.079Z,1005.20
2018-11-25T01:27:02.055Z,1005.18
2018-11-25T01:28:02.034Z,1005.22
2018-11-25T01:29:02.011Z,1005.15
2018-11-25T01:30:01.972Z,1005.17
2018-11-25T01:31:01.948Z,1005.20
2018-11-25T01:32:01.929Z,1005.21
2018-11-25T01:33:01.903Z,1005.18
2018-11-25T01:34:01.874Z,1005.20
2018-11-25T01:35:01.853Z,1005.20
2018-11-25T01:36:01.831Z,1005.20
2018-11-25T01:37:01.800Z,1005.20
2018-11-25T01:38:01.772Z,1005.20
2018-11-25T01:39:01.745Z,1005.16
2018-11-25T01:40:01.723Z,1005.18
2018-11-25T01:41:01.695Z,1005.18
2018-11-25T01:42:01.669Z,1005.16
2018-11-25T01:43:01.652Z,1005.13
2018-11-25T01:44:01.616Z,1005.14
2018-11-25T01:45:01.594Z,1005.17
2018-11-25T01:46:01.568Z,1005.13
2018-11-25T01:47:01.538Z,1005.14
2018-11-25T01:48:01.513Z,1005.12
2018-11-25T01:49:01.497Z,1005.15
2018-11-25T01:50:01.466Z,1005.15
2018-11-25T01:51:01.437Z,1005.15
2018-11-25T01:52:01.412Z,1005.11
2018-11-25T01:53:01.384Z,1005.18
2018-11-25T01:54:01.358Z,1005.14
2018-11-25T01:55:01.336Z,1005.10
2018-11-25T01:56:01.310Z,1005.10
2018-11-25T01:57:01.282Z,1005.14
2018-11-25T01:58:01.261Z,1005.11
2018-11-25T01:59:01.231Z,1005.05
2018-11-25T02:00:01.206Z,1005.07
2018-11-25T02:01:01.179Z,1005.07
2018-11-25T02:02:01.153Z,1005.06
2018-11-25T02:03:01.132Z,1005.08
2018-11-25T02:04:01.106Z,1005.03
2018-11-25T02:05:01.077Z,1005.08
2018-11-25T02:06:01.052Z,1005.07
2018-11-25T02:07:01.026Z,1005.05
2018-11-25T02:08:01.002Z,1005.06
2018-11-25T02:09:00.973Z,1005.07
2018-11-25T02:10:00.964Z,1005.00
2018-11-25T02:11:00.925Z,1005.02
2018-11-25T02:12:00.900Z,1005.02
2018-11-25T02:13:00.872Z,1004.99
2018-11-25T02:14:00.846Z,1005.01
2018-11-25T02:15:00.833Z,1005.00
2018-11-25T02:16:00.797Z,1005.01
2018-11-25T02:17:00.776Z,1005.02
2018-11-25T02:18:00.743Z,1005.01
2018-11-25T02:19:00.719Z,1004.98
2018-11-25T02:20:00.693Z,1004.98
2018-11-25T02:21:00.668Z,1004.99
2018-11-25T02:22:00.641Z,1004.96
2018-11-25T02:23:00.618Z,1004.98
2018-11-25T02:24:00.596Z,1004.98
2018-11-25T02:25:00.566Z,1004.95
2018-11-25T02:26:00.538Z,1004.95
2018-11-25T02:27:00.518Z,1004.93
2018-11-25T02:28:00.486Z,1004.94
2018-11-25T02:29:00.462Z,1004.93
2018-11-25T02:30:00.442Z,1004.92
2018-11-25T02:31:00.411Z,1004.91
2018-11-25T02:32:00.385Z,1004.93
2018-11-25T02:33:00.365Z,1004.87
2018-11-25T02:34:00.334Z,1004.87
2018-11-25T02:35:00.309Z,1004.85
2018-11-25T02:36:00.282Z,1004.81
2018-11-25T02:37:00.268Z,1004.82
2018-11-25T02:38:00.232Z,1004.79
2018-11-25T02:39:00.211Z,1004.78
2018-11-25T02:40:00.181Z,1004.82
2018-11-25T02:41:00.154Z,1004.77
2018-11-25T02:42:00.129Z,1004.77
2018-11-25T02:43:00.104Z,1004.76
2018-11-25T02:44:00.078Z,1004.75
2018-11-25T02:45:00.083Z,1004.75
2018-11-25T02:46:00.038Z,1004.75
2018-11-25T02:47:00.015Z,1004.78
2018-11-25T02:47:59.975Z,1004.77
2018-11-25T02:48:59.954Z,1004.81
2018-11-25T02:49:59.923Z,1004.80
2018-11-25T02:50:59.899Z,1004.83
2018-11-25T02:51:59.874Z,1004.84
2018-11-25T02:52:59.846Z,1004.83
2018-11-25T02:53:59.820Z,1004.83
2018-11-25T02:54:59.795Z,1004.83
2018-11-25T02:55:59.774Z,1004.81
2018-11-25T02:56:59.745Z,1004.81
2018-11-25T02:58:00.872Z,1004.77
2018-11-25T02:58:59.704Z,1004.79
2018-11-25T02:59:59.670Z,1004.77
2018-11-25T03:00:59.643Z,1004.83
2018-11-25T03:01:59.617Z,1004.78
2018-11-25T03:02:59.594Z,1004.82
2018-11-25T03:03:59.573Z,1004.85
2018-11-25T03:04:59.540Z,1004.84
2018-11-25T03:05:59.520Z,1004.83
2018-11-25T03:06:59.492Z,1004.88
2018-11-25T03:07:59.473Z,1004.89
2018-11-25T03:08:59.437Z,1004.93
2018-11-25T03:09:59.412Z,1004.92
2018-11-25T03:10:59.388Z,1004.93
2018-11-25T03:11:59.369Z,1004.95
2018-11-25T03:12:59.334Z,1004.96
2018-11-25T03:13:59.317Z,1004.93
2018-11-25T03:14:59.283Z,1004.94
2018-11-25T03:15:59.258Z,1004.95
2018-11-25T03:16:59.231Z,1004.91
2018-11-25T03:17:59.207Z,1004.94
2018-11-25T03:18:59.183Z,1004.93
2018-11-25T03:19:59.156Z,1004.94
2018-11-25T03:20:59.132Z,1004.94
2018-11-25T03:21:59.103Z,1004.95
2018-11-25T03:22:59.079Z,1004.93
2018-11-25T03:23:59.058Z,1004.96
2018-11-25T03:24:59.028Z,1004.96
2018-11-25T03:25:59.000Z,1004.93
2018-11-25T03:26:58.977Z,1004.95
2018-11-25T03:27:58.952Z,1004.94
2018-11-25T03:28:58.925Z,1004.95
2018-11-25T03:29:58.899Z,1004.97
2018-11-25T03:30:58.875Z,1004.99
2018-11-25T03:31:58.849Z,1004.98
2018-11-25T03:32:58.825Z,1005.02
2018-11-25T03:33:58.797Z,1005.02
2018-11-25T03:34:58.773Z,1005.05
2018-11-25T03:35:58.750Z,1005.02
2018-11-25T03:36:58.724Z,1005.05
2018-11-25T03:37:58.697Z,1005.05
2018-11-25T03:38:58.672Z,1005.05
2018-11-25T03:39:58.645Z,1005.06
2018-11-25T03:40:58.624Z,1005.06
2018-11-25T03:41:58.594Z,1005.08
2018-11-25T03:42:58.568Z,1005.11
2018-11-25T03:43:58.544Z,1005.07
2018-11-25T03:44:58.517Z,1005.11
2018-11-25T03:45:58.494Z,1005.12
2018-11-25T03:46:58.473Z,1005.13
2018-11-25T03:47:58.446Z,1005.16
2018-11-25T03:48:58.416Z,1005.14
2018-11-25T03:49:58.395Z,1005.14
2018-11-25T03:50:58.366Z,1005.15
2018-11-25T03:51:58.375Z,1005.12
2018-11-25T03:52:58.318Z,1005.13
2018-11-25T03:53:58.299Z,1005.10
2018-11-25T03:54:58.265Z,1005.13
2018-11-25T03:55:58.238Z,1005.14
2018-11-25T03:56:58.213Z,1005.17
2018-11-25T03:57:58.187Z,1005.16
2018-11-25T03:58:58.161Z,1005.18
2018-11-25T03:59:58.138Z,1005.17
2018-11-25T04:00:58.115Z,1005.18
2018-11-25T04:01:58.085Z,1005.20
2018-11-25T04:02:58.059Z,1005.19
2018-11-25T04:03:58.033Z,1005.23
2018-11-25T04:04:58.012Z,1005.23
2018-11-25T04:05:57.982Z,1005.21
2018-11-25T04:06:57.960Z,1005.20
2018-11-25T04:07:57.933Z,1005.22
2018-11-25T04:08:57.906Z,1005.19
2018-11-25T04:09:57.888Z,1005.21
2018-11-25T04:10:57.856Z,1005.19
2018-11-25T04:11:57.831Z,1005.20
2018-11-25T04:12:57.805Z,1005.21
2018-11-25T04:13:57.779Z,1005.20
2018-11-25T04:14:57.755Z,1005.18
2018-11-25T04:15:57.729Z,1005.19
2018-11-25T04:16:57.706Z,1005.24
2018-11-25T04:17:57.678Z,1005.22
2018-11-25T04:18:57.652Z,1005.23
2018-11-25T04:19:57.632Z,1005.26
2018-11-25T04:20:57.601Z,1005.24
2018-11-25T04:21:57.578Z,1005.25
2018-11-25T04:22:57.550Z,1005.25
2018-11-25T04:23:57.525Z,1005.22
2018-11-25T04:24:57.498Z,1005.24
2018-11-25T04:25:57.472Z,1005.21
2018-11-25T04:26:57.452Z,1005.21
2018-11-25T04:27:57.427Z,1005.21
2018-11-25T04:28:57.408Z,1005.23
2018-11-25T04:29:57.376Z,1005.18
2018-11-25T04:30:57.346Z,1005.21
2018-11-25T04:31:57.321Z,1005.18
2018-11-25T04:32:57.300Z,1005.20
2018-11-25T04:33:57.268Z,1005.19
2018-11-25T04:34:57.243Z,1005.18
2018-11-25T04:35:57.227Z,1005.20
2018-11-25T04:36:57.193Z,1005.15
2018-11-25T04:37:57.169Z,1005.18
2018-11-25T04:38:57.145Z,1005.15
2018-11-25T04:39:57.122Z,1005.17
2018-11-25T04:40:57.096Z,1005.19
2018-11-25T04:41:57.065Z,1005.20
2018-11-25T04:42:57.042Z,1005.14
2018-11-25T04:43:57.014Z,1005.18
2018-11-25T04:44:56.989Z,1005.16
2018-11-25T04:45:56.962Z,1005.14
2018-11-25T04:46:56.937Z,1005.16
2018-11-25T04:47:56.911Z,1005.13
2018-11-25T04:48:56.884Z,1005.16
2018-11-25T04:49:56.862Z,1005.11
2018-11-25T04:50:56.839Z,1005.13
2018-11-25T04:51:56.809Z,1005.16
2018-11-25T04:52:56.781Z,1005.14
2018-11-25T04:53:56.759Z,1005.09
2018-11-25T04:54:56.735Z,1005.15
2018-11-25T04:55:56.712Z,1005.15
2018-11-25T04:56:56.679Z,1005.14
2018-11-25T04:57:56.657Z,1005.13
2018-11-25T04:58:56.627Z,1005.14
2018-11-25T04:59:56.603Z,1005.18
2018-11-25T05:00:56.577Z,1005.16
2018-11-25T05:01:56.595Z,1005.15
2018-11-25T05:02:56.527Z,1005.20
2018-11-25T05:03:56.503Z,1005.21
2018-11-25T05:04:56.475Z,1005.18
2018-11-25T05:05:56.448Z,1005.18
2018-11-25T05:06:56.424Z,1005.19
2018-11-25T05:07:56.401Z,1005.19
2018-11-25T05:08:56.373Z,1005.17
2018-11-25T05:09:56.348Z,1005.18
2018-11-25T05:10:56.321Z,1005.17
2018-11-25T05:11:56.297Z,1005.15
2018-11-25T05:12:56.272Z,1005.16
2018-11-25T05:13:56.248Z,1005.20
2018-11-25T05:14:56.220Z,1005.17
2018-11-25T05:15:56.195Z,1005.16
2018-11-25T05:16:56.168Z,1005.21
2018-11-25T05:17:56.144Z,1005.19
2018-11-25T05:18:56.119Z,1005.24
2018-11-25T05:19:56.093Z,1005.22
2018-11-25T05:20:56.068Z,1005.23
2018-11-25T05:21:56.042Z,1005.26
2018-11-25T05:22:56.018Z,1005.25
2018-11-25T05:23:55.991Z,1005.26
2018-11-25T05:24:55.967Z,1005.25
2018-11-25T05:25:55.941Z,1005.28
2018-11-25T05:26:55.918Z,1005.25
2018-11-25T05:27:55.890Z,1005.27
2018-11-25T05:28:55.863Z,1005.24
2018-11-25T05:29:55.848Z,1005.27
2018-11-25T05:30:55.824Z,1005.24
2018-11-25T05:31:55.788Z,1005.26
2018-11-25T05:32:55.760Z,1005.28
2018-11-25T05:33:55.734Z,1005.30
2018-11-25T05:34:55.711Z,1005.32
2018-11-25T05:35:55.723Z,1005.30
2018-11-25T05:36:55.657Z,1005.30
2018-11-25T05:37:55.643Z,1005.31
2018-11-25T05:38:55.608Z,1005.33
2018-11-25T05:39:55.586Z,1005.31
2018-11-25T05:40:55.555Z,1005.31
2018-11-25T05:41:55.533Z,1005.33
2018-11-25T05:42:55.511Z,1005.32
2018-11-25T05:43:55.480Z,1005.35
2018-11-25T05:44:55.454Z,1005.34
2018-11-25T05:45:55.429Z,1005.37
2018-11-25T05:46:55.404Z,1005.34
2018-11-25T05:47:55.378Z,1005.36
2018-11-25T05:48:55.352Z,1005.32
2018-11-25T05:49:55.329Z,1005.32
2018-11-25T05:50:55.303Z,1005.30
2018-11-25T05:51:55.281Z,1005.31
2018-11-25T05:52:55.252Z,1005.34
2018-11-25T05:53:55.224Z,1005.35
2018-11-25T05:54:55.201Z,1005.33
2018-11-25T05:55:55.172Z,1005.33
2018-11-25T05:56:55.148Z,1005.31
2018-11-25T05:57:55.122Z,1005.31
2018-11-25T05:58:55.098Z,1005.29
2018-11-25T05:59:55.076Z,1005.29
2018-11-25T06:00:55.096Z,1005.29
2018-11-25T06:01:55.022Z,1005.29
2018-11-25T06:02:54.999Z,1005.33
2018-11-25T06:03:54.968Z,1005.32
2018-11-25T06:04:54.949Z,1005.36
2018-11-25T06:05:54.918Z,1005.36
2018-11-25T06:06:54.892Z,1005.38
2018-11-25T06:07:54.867Z,1005.39
2018-11-25T06:08:54.842Z,1005.40
2018-11-25T06:09:54.815Z,1005.41
2018-11-25T06:10:54.796Z,1005.40
2018-11-25T06:11:54.764Z,1005.39
2018-11-25T06:12:54.743Z,1005.39
2018-11-25T06:13:54.713Z,1005.39
2018-11-25T06:14:54.690Z,1005.37
2018-11-25T06:15:54.662Z,1005.39
2018-11-25T06:16:54.637Z,1005.36
2018-11-25T06:17:54.609Z,1005.40
2018-11-25T06:18:54.584Z,1005.40
2018-11-25T06:19:54.568Z,1005.40
2018-11-25T06:20:54.537Z,1005.41
2018-11-25T06:21:54.508Z,1005.43
2018-11-25T06:22:54.486Z,1005.44
2018-11-25T06:23:54.456Z,1005.42
2018-11-25T06:24:54.434Z,1005.44
2018-11-25T06:25:54.406Z,1005.39
2018-11-25T06:26:54.380Z,1005.44
2018-11-25T06:27:54.357Z,1005.43
2018-11-25T06:28:54.329Z,1005.43
2018-11-25T06:29:54.303Z,1005.46
2018-11-25T06:30:54.283Z,1005.44
2018-11-25T06:31:54.253Z,1005.46
2018-11-25T06:32:54.226Z,1005.44
2018-11-25T06:33:54.201Z,1005.43
2018-11-25T06:34:54.179Z,1005.44
2018-11-25T06:35:54.153Z,1005.44
2018-11-25T06:36:54.125Z,1005.40
2018-11-25T06:37:54.109Z,1005.42
2018-11-25T06:38:54.074Z,1005.41
2018-11-25T06:39:54.048Z,1005.42
2018-11-25T06:40:54.026Z,1005.43
2018-11-25T06:41:54.008Z,1005.44
2018-11-25T06:42:53.973Z,1005.41
2018-11-25T06:43:53.948Z,1005.45
2018-11-25T06:44:53.920Z,1005.42
2018-11-25T06:45:53.900Z,1005.40
2018-11-25T06:46:53.869Z,1005.43
2018-11-25T06:47:53.847Z,1005.41
2018-11-25T06:48:55.005Z,1005.39
2018-11-25T06:49:53.796Z,1005.37
2018-11-25T06:50:53.769Z,1005.38
2018-11-25T06:51:53.745Z,1005.40
2018-11-25T06:52:53.718Z,1005.40
2018-11-25T06:53:53.692Z,1005.43
2018-11-25T06:54:53.685Z,1005.45
2018-11-25T06:55:53.646Z,1005.44
2018-11-25T06:56:53.615Z,1005.47
2018-11-25T06:57:53.591Z,1005.46
2018-11-25T06:58:53.567Z,1005.47
2018-11-25T06:59:53.550Z,1005.49
2018-11-25T07:00:53.513Z,1005.47
2018-11-25T07:01:53.490Z,1005.48
2018-11-25T07:02:53.470Z,1005.48
2018-11-25T07:03:53.439Z,1005.47
2018-11-25T07:04:53.412Z,1005.48
2018-11-25T07:05:53.389Z,1005.44
2018-11-25T07:06:53.361Z,1005.47
2018-11-25T07:07:53.336Z,1005.44
2018-11-25T07:08:53.308Z,1005.48
2018-11-25T07:09:53.284Z,1005.49
2018-11-25T07:10:53.259Z,1005.48
2018-11-25T07:11:53.234Z,1005.47
2018-11-25T07:12:53.208Z,1005.45
2018-11-25T07:13:53.188Z,1005.50
2018-11-25T07:14:53.157Z,1005.52
2018-11-25T07:15:53.135Z,1005.53
2018-11-25T07:16:53.106Z,1005.55
2018-11-25T07:17:53.081Z,1005.56
2018-11-25T07:18:53.057Z,1005.53
2018-11-25T07:19:53.029Z,1005.55
2018-11-25T07:20:53.005Z,1005.61
2018-11-25T07:21:52.979Z,1005.61
2018-11-25T07:22:54.140Z,1005.63
2018-11-25T07:23:52.925Z,1005.69
2018-11-25T07:24:52.903Z,1005.72
2018-11-25T07:25:52.873Z,1005.70
2018-11-25T07:26:52.848Z,1005.75
2018-11-25T07:27:52.829Z,1005.76
2018-11-25T07:28:52.801Z,1005.77
2018-11-25T07:29:52.773Z,1005.77
2018-11-25T07:30:52.747Z,1005.81
2018-11-25T07:31:52.720Z,1005.78
2018-11-25T07:32:52.700Z,1005.74
2018-11-25T07:33:52.668Z,1005.74
2018-11-25T07:34:52.650Z,1005.71
2018-11-25T07:35:52.621Z,1005.73
2018-11-25T07:36:52.595Z,1005.72
2018-11-25T07:37:52.569Z,1005.74
2018-11-25T07:38:52.540Z,1005.76
2018-11-25T07:39:52.525Z,1005.79
2018-11-25T07:40:52.490Z,1005.83
2018-11-25T07:41:52.473Z,1005.81
2018-11-25T07:42:52.458Z,1005.82
2018-11-25T07:43:52.428Z,1005.83
2018-11-25T07:44:52.394Z,1005.86
2018-11-25T07:45:52.361Z,1005.84
2018-11-25T07:46:52.340Z,1005.82
2018-11-25T07:47:52.323Z,1005.84
2018-11-25T07:48:52.284Z,1005.86
2018-11-25T07:49:52.258Z,1005.86
2018-11-25T07:50:52.243Z,1005.81
2018-11-25T07:51:52.226Z,1005.82
2018-11-25T07:52:52.179Z,1005.82
2018-11-25T07:53:52.158Z,1005.81
2018-11-25T07:54:52.144Z,1005.79
2018-11-25T07:55:52.104Z,1005.76
2018-11-25T07:56:52.078Z,1005.78
2018-11-25T07:57:52.051Z,1005.78
2018-11-25T07:58:52.029Z,1005.79
2018-11-25T07:59:52.003Z,1005.80
2018-11-25T08:00:51.974Z,1005.83
2018-11-25T08:01:51.950Z,1005.86
2018-11-25T08:02:51.925Z,1005.83
2018-11-25T08:03:51.900Z,1005.82
2018-11-25T08:04:51.877Z,1005.84
2018-11-25T08:05:51.850Z,1005.84
2018-11-25T08:06:51.829Z,1005.79
2018-11-25T08:07:51.800Z,1005.79
2018-11-25T08:08:51.773Z,1005.75
2018-11-25T08:09:51.747Z,1005.76
2018-11-25T08:10:51.725Z,1005.76
2018-11-25T08:11:51.697Z,1005.76
2018-11-25T08:12:51.669Z,1005.75
2018-11-25T08:13:51.650Z,1005.75
2018-11-25T08:14:51.619Z,1005.81
2018-11-25T08:15:51.595Z,1005.75
2018-11-25T08:16:51.570Z,1005.77
2018-11-25T08:17:51.546Z,1005.80
2018-11-25T08:18:51.521Z,1005.79
2018-11-25T08:19:51.493Z,1005.78
2018-11-25T08:20:51.472Z,1005.78
2018-11-25T08:21:51.440Z,1005.79
2018-11-25T08:22:51.419Z,1005.82
2018-11-25T08:23:51.396Z,1005.78
2018-11-25T08:24:51.366Z,1005.80
2018-11-25T08:25:51.349Z,1005.77
2018-11-25T08:26:51.339Z,1005.79
2018-11-25T08:27:51.292Z,1005.74
2018-11-25T08:28:51.266Z,1005.70
2018-11-25T08:29:51.250Z,1005.70
2018-11-25T08:30:51.219Z,1005.70
2018-11-25T08:31:51.196Z,1005.66
2018-11-25T08:32:51.180Z,1005.67
2018-11-25T08:33:51.141Z,1005.61
2018-11-25T08:34:51.119Z,1005.62
2018-11-25T08:35:51.100Z,1005.56
2018-11-25T08:36:51.069Z,1005.60
2018-11-25T08:37:51.046Z,1005.62
2018-11-25T08:38:51.013Z,1005.58
2018-11-25T08:39:50.988Z,1005.58
2018-11-25T08:40:50.967Z,1005.56
2018-11-25T08:41:50.936Z,1005.54
2018-11-25T08:42:50.914Z,1005.52
2018-11-25T08:43:50.884Z,1005.52
2018-11-25T08:44:50.864Z,1005.52
2018-11-25T08:45:50.835Z,1005.43
2018-11-25T08:46:50.808Z,1005.46
2018-11-25T08:47:50.790Z,1005.47
2018-11-25T08:48:50.760Z,1005.48
2018-11-25T08:49:50.737Z,1005.45
2018-11-25T08:50:50.713Z,1005.49
2018-11-25T08:51:50.683Z,1005.47
2018-11-25T08:52:50.657Z,1005.45
2018-11-25T08:53:50.631Z,1005.47
2018-11-25T08:54:50.606Z,1005.48
2018-11-25T08:55:50.578Z,1005.45
2018-11-25T08:56:50.552Z,1005.49
2018-11-25T08:57:50.532Z,1005.42
2018-11-25T08:58:50.509Z,1005.46
2018-11-25T08:59:50.478Z,1005.42
2018-11-25T09:00:50.451Z,1005.47
2018-11-25T09:01:50.426Z,1005.47
2018-11-25T09:02:50.408Z,1005.45
2018-11-25T09:03:50.379Z,1005.49
2018-11-25T09:04:50.347Z,1005.49
2018-11-25T09:05:50.324Z,1005.46
2018-11-25T09:06:50.300Z,1005.49
2018-11-25T09:07:50.272Z,1005.48
2018-11-25T09:08:50.271Z,1005.47
2018-11-25T09:09:50.282Z,1005.53
2018-11-25T09:10:50.197Z,1005.49
2018-11-25T09:11:50.172Z,1005.53
2018-11-25T09:12:55.284Z,1005.52
2018-11-25T09:13:50.122Z,1005.57
2018-11-25T09:14:50.092Z,1005.57
2018-11-25T09:15:50.101Z,1005.61
2018-11-25T09:16:50.041Z,1005.62
2018-11-25T09:17:50.031Z,1005.66
2018-11-25T09:18:49.992Z,1005.69
2018-11-25T09:19:49.967Z,1005.71
2018-11-25T09:20:49.939Z,1005.73
2018-11-25T09:21:49.913Z,1005.82
2018-11-25T09:22:49.899Z,1005.82
2018-11-25T09:23:49.867Z,1005.86
2018-11-25T09:24:49.838Z,1005.90
2018-11-25T09:25:49.812Z,1005.90
2018-11-25T09:26:49.805Z,1005.92
2018-11-25T09:27:49.765Z,1005.95
2018-11-25T09:28:49.739Z,1005.94
2018-11-25T09:29:49.716Z,1005.96
2018-11-25T09:30:49.690Z,1005.94
2018-11-25T09:31:49.662Z,1005.90
2018-11-25T09:32:49.633Z,1005.89
2018-11-25T09:33:49.615Z,1005.86
2018-11-25T09:34:49.584Z,1005.84
2018-11-25T09:35:49.570Z,1005.81
2018-11-25T09:36:49.540Z,1005.82
2018-11-25T09:37:49.520Z,1005.81
2018-11-25T09:38:49.497Z,1005.78
2018-11-25T09:39:49.460Z,1005.79
2018-11-25T09:40:49.460Z,1005.78
2018-11-25T09:41:49.418Z,1005.80
2018-11-25T09:42:49.386Z,1005.82
2018-11-25T09:43:49.361Z,1005.82
2018-11-25T09:44:49.332Z,1005.84
2018-11-25T09:45:49.311Z,1005.84
2018-11-25T09:46:49.290Z,1005.83
2018-11-25T09:47:49.266Z,1005.80
2018-11-25T09:48:49.230Z,1005.78
2018-11-25T09:49:49.206Z,1005.77
2018-11-25T09:50:49.178Z,1005.79
2018-11-25T09:51:49.153Z,1005.73
2018-11-25T09:52:49.136Z,1005.76
2018-11-25T09:53:49.108Z,1005.71
2018-11-25T09:54:49.077Z,1005.73
2018-11-25T09:55:49.057Z,1005.74
2018-11-25T09:56:49.033Z,1005.75
2018-11-25T09:57:49.001Z,1005.74
2018-11-25T09:58:48.981Z,1005.72
2018-11-25T09:59:48.960Z,1005.75
2018-11-25T10:00:48.930Z,1005.76
2018-11-25T10:01:48.901Z,1005.77
2018-11-25T10:02:48.889Z,1005.78
2018-11-25T10:03:48.851Z,1005.78
2018-11-25T10:04:48.828Z,1005.81
2018-11-25T10:05:48.803Z,1005.82
2018-11-25T10:06:48.776Z,1005.82
2018-11-25T10:07:48.759Z,1005.79
2018-11-25T10:08:48.725Z,1005.77
2018-11-25T10:09:48.703Z,1005.74
2018-11-25T10:10:52.609Z,1005.69
2018-11-25T10:11:48.652Z,1005.72
2018-11-25T10:12:48.645Z,1005.73
2018-11-25T10:13:48.597Z,1005.72
2018-11-25T10:14:48.569Z,1005.71
2018-11-25T10:15:48.548Z,1005.71
2018-11-25T10:16:48.521Z,1005.71
2018-11-25T10:17:48.501Z,1005.70
2018-11-25T10:18:48.478Z,1005.73
2018-11-25T10:19:48.456Z,1005.70
2018-11-25T10:20:48.440Z,1005.71
2018-11-25T10:21:48.392Z,1005.72
2018-11-25T10:22:48.369Z,1005.70
2018-11-25T10:23:48.350Z,1005.72
2018-11-25T10:24:48.329Z,1005.73
2018-11-25T10:25:48.300Z,1005.74
2018-11-25T10:26:48.275Z,1005.74
2018-11-25T10:27:48.248Z,1005.72
2018-11-25T10:28:48.224Z,1005.72
2018-11-25T10:29:48.198Z,1005.70
2018-11-25T10:30:48.171Z,1005.70
2018-11-25T10:31:48.144Z,1005.70
2018-11-25T10:32:48.118Z,1005.70
2018-11-25T10:33:48.092Z,1005.69
2018-11-25T10:34:48.070Z,1005.66
2018-11-25T10:35:48.053Z,1005.68
2018-11-25T10:36:48.021Z,1005.68
2018-11-25T10:37:48.006Z,1005.66
2018-11-25T10:38:47.965Z,1005.68
2018-11-25T10:39:47.944Z,1005.64
2018-11-25T10:40:47.911Z,1005.63
2018-11-25T10:41:47.893Z,1005.64
2018-11-25T10:42:47.862Z,1005.62
2018-11-25T10:43:47.840Z,1005.63
2018-11-25T10:44:47.817Z,1005.62
2018-11-25T10:45:47.804Z,1005.62
2018-11-25T10:46:47.777Z,1005.64
2018-11-25T10:47:47.745Z,1005.64
2018-11-25T10:48:47.719Z,1005.59
2018-11-25T10:49:47.683Z,1005.62
2018-11-25T10:50:51.198Z,1005.56
2018-11-25T10:51:47.639Z,1005.56
2018-11-25T10:52:47.626Z,1005.53
2018-11-25T10:53:47.590Z,1005.57
2018-11-25T10:54:47.577Z,1005.55
2018-11-25T10:55:47.549Z,1005.57
2018-11-25T10:56:47.511Z,1005.56
2018-11-25T10:57:47.492Z,1005.57
2018-11-25T10:58:47.462Z,1005.52
2018-11-25T10:59:47.436Z,1005.53
2018-11-25T11:00:47.434Z,1005.53
2018-11-25T11:01:47.393Z,1005.53
2018-11-25T11:02:47.357Z,1005.53
2018-11-25T11:03:47.335Z,1005.48
2018-11-25T11:04:47.313Z,1005.49
2018-11-25T11:05:47.296Z,1005.53
2018-11-25T11:06:47.257Z,1005.53
2018-11-25T11:07:47.229Z,1005.51
2018-11-25T11:08:47.204Z,1005.48
2018-11-25T11:09:47.178Z,1005.47
2018-11-25T11:10:47.156Z,1005.44
2018-11-25T11:11:47.134Z,1005.51
2018-11-25T11:12:47.106Z,1005.47
2018-11-25T11:13:47.075Z,1005.50
2018-11-25T11:14:47.054Z,1005.46
2018-11-25T11:15:47.025Z,1005.48
2018-11-25T11:16:53.792Z,1005.49
2018-11-25T11:17:46.976Z,1005.49
2018-11-25T11:18:46.951Z,1005.52
2018-11-25T11:19:46.925Z,1005.51
2018-11-25T11:20:46.904Z,1005.49
2018-11-25T11:21:46.872Z,1005.49
2018-11-25T11:22:46.855Z,1005.45
2018-11-25T11:23:46.837Z,1005.46
2018-11-25T11:24:46.807Z,1005.46
2018-11-25T11:25:46.782Z,1005.48
2018-11-25T11:26:46.762Z,1005.49
2018-11-25T11:27:46.721Z,1005.50
2018-11-25T11:28:46.702Z,1005.48
2018-11-25T11:29:46.672Z,1005.52
2018-11-25T11:30:46.645Z,1005.50
2018-11-25T11:31:46.645Z,1005.55
2018-11-25T11:32:46.593Z,1005.51
2018-11-25T11:33:46.574Z,1005.52
2018-11-25T11:34:46.543Z,1005.52
2018-11-25T11:35:46.518Z,1005.55
2018-11-25T11:36:46.498Z,1005.53
2018-11-25T11:37:46.466Z,1005.53
2018-11-25T11:38:46.443Z,1005.53
2018-11-25T11:39:46.422Z,1005.58
2018-11-25T11:40:46.387Z,1005.54
2018-11-25T11:41:46.367Z,1005.54
2018-11-25T11:42:46.341Z,1005.54
2018-11-25T11:43:46.319Z,1005.52
2018-11-25T11:44:46.303Z,1005.52
2018-11-25T11:45:46.263Z,1005.52
2018-11-25T11:46:46.246Z,1005.58
2018-11-25T11:47:46.221Z,1005.60
2018-11-25T11:48:46.195Z,1005.58
2018-11-25T11:49:46.162Z,1005.61
2018-11-25T11:50:46.142Z,1005.58
2018-11-25T11:51:46.117Z,1005.58
2018-11-25T11:52:46.091Z,1005.61
2018-11-25T11:53:46.063Z,1005.62
2018-11-25T11:54:46.034Z,1005.63
2018-11-25T11:55:46.007Z,1005.62
2018-11-25T11:56:45.983Z,1005.64
2018-11-25T11:57:45.958Z,1005.61
2018-11-25T11:58:45.931Z,1005.61
2018-11-25T11:59:45.912Z,1005.62
2018-11-25T12:00:45.884Z,1005.58
2018-11-25T12:01:45.854Z,1005.59
2018-11-25T12:02:45.837Z,1005.56
2018-11-25T12:03:45.827Z,1005.59
2018-11-25T12:04:45.785Z,1005.58